sensor_id;sensor_type;location;lat;lon;timestamp;temperature;humidity
52965;DHT22;42923;53.220;6.528;2023-03-07T00:01:25;3.10;99.90
52965;DHT22;42923;53.220;6.528;2023-03-07T00:03:51;3.20;99.90
52965;DHT22;42923;53.220;6.528;2023-03-07T00:06:17;3.20;99.90
52965;DHT22;42923;53.220;6.528;2023-03-07T00:08:42;3.20;99.90
52965;DHT22;42923;53.220;6.528;2023-03-07T00:11:09;3.20;99.90
52965;DHT22;42923;53.220;6.528;2023-03-07T00:13:36;3.20;99.90
52965;DHT22;42923;53.220;6.528;2023-03-07T00:16:12;3.20;99.90
52965;DHT22;42923;53.220;6.528;2023-03-07T00:18:38;3.40;99.90
52965;DHT22;42923;53.220;6.528;2023-03-07T00:21:07;3.20;99.90
52965;DHT22;42923;53.220;6.528;2023-03-07T00:23:34;3.20;99.90
52965;DHT22;42923;53.220;6.528;2023-03-07T00:26:03;3.10;99.90
52965;DHT22;42923;53.220;6.528;2023-03-07T00:28:29;3.10;99.90
52965;DHT22;42923;53.220;6.528;2023-03-07T00:31:00;3.10;99.90
52965;DHT22;42923;53.220;6.528;2023-03-07T00:33:26;3.10;99.90
52965;DHT22;42923;53.220;6.528;2023-03-07T00:36:16;3.10;99.90
52965;DHT22;42923;53.220;6.528;2023-03-07T00:38:43;3.00;99.90
52965;DHT22;42923;53.220;6.528;2023-03-07T00:41:14;3.00;99.90
52965;DHT22;42923;53.220;6.528;2023-03-07T00:43:40;3.00;99.90
52965;DHT22;42923;53.220;6.528;2023-03-07T00:46:07;3.00;99.90
52965;DHT22;42923;53.220;6.528;2023-03-07T00:48:35;3.00;99.90
52965;DHT22;42923;53.220;6.528;2023-03-07T00:51:04;3.10;99.90
52965;DHT22;42923;53.220;6.528;2023-03-07T00:53:30;3.10;99.90
52965;DHT22;42923;53.220;6.528;2023-03-07T00:56:19;3.20;99.90
52965;DHT22;42923;53.220;6.528;2023-03-07T00:58:46;3.20;99.90
52965;DHT22;42923;53.220;6.528;2023-03-07T01:01:14;3.20;99.90
52965;DHT22;42923;53.220;6.528;2023-03-07T01:03:40;3.30;99.90
52965;DHT22;42923;53.220;6.528;2023-03-07T01:06:09;3.30;99.90
52965;DHT22;42923;53.220;6.528;2023-03-07T01:08:36;3.30;99.90
52965;DHT22;42923;53.220;6.528;2023-03-07T01:11:04;3.40;99.90
52965;DHT22;42923;53.220;6.528;2023-03-07T01:13:31;3.40;99.90
52965;DHT22;42923;53.220;6.528;2023-03-07T01:16:18;3.40;99.90
52965;DHT22;42923;53.220;6.528;2023-03-07T01:18:48;3.40;99.90
52965;DHT22;42923;53.220;6.528;2023-03-07T01:21:20;3.40;99.90
52965;DHT22;42923;53.220;6.528;2023-03-07T01:23:47;3.40;99.90
52965;DHT22;42923;53.220;6.528;2023-03-07T01:26:15;3.40;99.90
52965;DHT22;42923;53.220;6.528;2023-03-07T01:28:41;3.40;99.90
52965;DHT22;42923;53.220;6.528;2023-03-07T01:31:07;3.40;99.90
52965;DHT22;42923;53.220;6.528;2023-03-07T01:33:34;3.40;99.90
52965;DHT22;42923;53.220;6.528;2023-03-07T01:36:00;3.40;99.90
52965;DHT22;42923;53.220;6.528;2023-03-07T01:38:25;3.40;99.90
52965;DHT22;42923;53.220;6.528;2023-03-07T01:40:54;3.40;99.90
52965;DHT22;42923;53.220;6.528;2023-03-07T01:43:33;3.30;99.90
52965;DHT22;42923;53.220;6.528;2023-03-07T01:49:31;3.40;99.90
52965;DHT22;42923;53.220;6.528;2023-03-07T01:51:35;3.30;99.90
52965;DHT22;42923;53.220;6.528;2023-03-07T01:54:03;3.20;99.90
52965;DHT22;42923;53.220;6.528;2023-03-07T01:56:30;3.10;99.90
52965;DHT22;42923;53.220;6.528;2023-03-07T01:58:56;3.00;99.90
52965;DHT22;42923;53.220;6.528;2023-03-07T02:01:22;3.00;99.90
52965;DHT22;42923;53.220;6.528;2023-03-07T02:03:54;2.90;99.90
52965;DHT22;42923;53.220;6.528;2023-03-07T02:06:21;2.90;99.90
52965;DHT22;42923;53.220;6.528;2023-03-07T02:08:49;3.50;99.90
52965;DHT22;42923;53.220;6.528;2023-03-07T02:11:16;2.90;99.90
52965;DHT22;42923;53.220;6.528;2023-03-07T02:13:42;2.90;99.90
52965;DHT22;42923;53.220;6.528;2023-03-07T02:16:07;3.20;99.90
52965;DHT22;42923;53.220;6.528;2023-03-07T02:18:45;2.80;99.90
52965;DHT22;42923;53.220;6.528;2023-03-07T02:21:37;2.80;99.90
52965;DHT22;42923;53.220;6.528;2023-03-07T02:26:48;2.80;99.90
52965;DHT22;42923;53.220;6.528;2023-03-07T02:29:15;2.80;99.90
52965;DHT22;42923;53.220;6.528;2023-03-07T02:31:44;2.80;99.90
52965;DHT22;42923;53.220;6.528;2023-03-07T02:34:23;2.80;99.90
52965;DHT22;42923;53.220;6.528;2023-03-07T02:37:03;2.80;99.90
52965;DHT22;42923;53.220;6.528;2023-03-07T02:39:31;2.70;99.90
52965;DHT22;42923;53.220;6.528;2023-03-07T02:42:09;2.70;99.90
52965;DHT22;42923;53.220;6.528;2023-03-07T02:44:45;2.70;99.90
52965;DHT22;42923;53.220;6.528;2023-03-07T02:47:12;2.60;99.90
52965;DHT22;42923;53.220;6.528;2023-03-07T02:49:38;2.60;99.90
52965;DHT22;42923;53.220;6.528;2023-03-07T02:52:04;2.60;99.90
52965;DHT22;42923;53.220;6.528;2023-03-07T02:54:31;2.60;99.90
52965;DHT22;42923;53.220;6.528;2023-03-07T02:56:57;2.60;99.90
52965;DHT22;42923;53.220;6.528;2023-03-07T02:59:23;2.60;99.90
52965;DHT22;42923;53.220;6.528;2023-03-07T03:01:48;2.80;99.90
52965;DHT22;42923;53.220;6.528;2023-03-07T03:04:14;2.50;99.90
52965;DHT22;42923;53.220;6.528;2023-03-07T03:06:41;2.50;99.90
52965;DHT22;42923;53.220;6.528;2023-03-07T03:09:07;2.50;99.90
52965;DHT22;42923;53.220;6.528;2023-03-07T03:11:33;2.50;99.90
52965;DHT22;42923;53.220;6.528;2023-03-07T03:13:59;2.40;99.90
52965;DHT22;42923;53.220;6.528;2023-03-07T03:16:27;2.40;99.90
52965;DHT22;42923;53.220;6.528;2023-03-07T03:18:52;2.40;99.90
52965;DHT22;42923;53.220;6.528;2023-03-07T03:21:18;2.40;99.90
52965;DHT22;42923;53.220;6.528;2023-03-07T03:23:44;2.50;99.90
52965;DHT22;42923;53.220;6.528;2023-03-07T03:26:10;2.50;99.90
52965;DHT22;42923;53.220;6.528;2023-03-07T03:28:37;2.50;99.90
52965;DHT22;42923;53.220;6.528;2023-03-07T03:31:08;2.40;99.90
52965;DHT22;42923;53.220;6.528;2023-03-07T03:33:37;2.40;99.90
52965;DHT22;42923;53.220;6.528;2023-03-07T03:36:12;2.40;99.90
52965;DHT22;42923;53.220;6.528;2023-03-07T03:38:39;2.40;99.90
52965;DHT22;42923;53.220;6.528;2023-03-07T03:41:09;2.30;99.90
52965;DHT22;42923;53.220;6.528;2023-03-07T03:43:37;2.30;99.90
52965;DHT22;42923;53.220;6.528;2023-03-07T03:46:03;2.30;99.90
52965;DHT22;42923;53.220;6.528;2023-03-07T03:48:29;2.30;99.90
52965;DHT22;42923;53.220;6.528;2023-03-07T03:51:02;2.30;99.90
52965;DHT22;42923;53.220;6.528;2023-03-07T03:53:30;2.30;99.90
52965;DHT22;42923;53.220;6.528;2023-03-07T03:56:02;2.20;99.90
52965;DHT22;42923;53.220;6.528;2023-03-07T03:58:29;2.70;99.90
52965;DHT22;42923;53.220;6.528;2023-03-07T04:00:55;2.20;99.90
52965;DHT22;42923;53.220;6.528;2023-03-07T04:03:21;2.20;99.90
52965;DHT22;42923;53.220;6.528;2023-03-07T04:05:46;2.20;99.90
52965;DHT22;42923;53.220;6.528;2023-03-07T04:08:12;2.10;99.90
52965;DHT22;42923;53.220;6.528;2023-03-07T04:10:39;2.10;99.90
52965;DHT22;42923;53.220;6.528;2023-03-07T04:13:04;2.10;99.90
52965;DHT22;42923;53.220;6.528;2023-03-07T04:15:30;2.10;99.90
52965;DHT22;42923;53.220;6.528;2023-03-07T04:17:56;2.10;99.90
52965;DHT22;42923;53.220;6.528;2023-03-07T04:20:21;2.10;99.90
52965;DHT22;42923;53.220;6.528;2023-03-07T04:22:49;2.10;99.90
52965;DHT22;42923;53.220;6.528;2023-03-07T04:25:17;2.20;99.90
52965;DHT22;42923;53.220;6.528;2023-03-07T04:27:45;2.10;99.90
52965;DHT22;42923;53.220;6.528;2023-03-07T04:30:11;2.10;99.90
52965;DHT22;42923;53.220;6.528;2023-03-07T04:32:38;2.10;99.90
52965;DHT22;42923;53.220;6.528;2023-03-07T04:35:04;2.20;99.90
52965;DHT22;42923;53.220;6.528;2023-03-07T04:37:29;2.00;99.90
52965;DHT22;42923;53.220;6.528;2023-03-07T04:39:58;2.00;99.90
52965;DHT22;42923;53.220;6.528;2023-03-07T04:42:23;1.90;99.90
52965;DHT22;42923;53.220;6.528;2023-03-07T04:44:50;2.00;99.90
52965;DHT22;42923;53.220;6.528;2023-03-07T04:47:17;2.00;99.90
52965;DHT22;42923;53.220;6.528;2023-03-07T04:49:42;2.00;99.90
52965;DHT22;42923;53.220;6.528;2023-03-07T04:52:08;2.00;99.90
52965;DHT22;42923;53.220;6.528;2023-03-07T04:54:34;2.10;99.90
52965;DHT22;42923;53.220;6.528;2023-03-07T04:57:01;2.10;99.90
52965;DHT22;42923;53.220;6.528;2023-03-07T04:59:27;2.10;99.90
52965;DHT22;42923;53.220;6.528;2023-03-07T05:01:53;2.20;99.90
52965;DHT22;42923;53.220;6.528;2023-03-07T05:04:19;2.20;99.90
52965;DHT22;42923;53.220;6.528;2023-03-07T05:06:46;2.30;99.90
52965;DHT22;42923;53.220;6.528;2023-03-07T05:09:12;2.30;99.90
52965;DHT22;42923;53.220;6.528;2023-03-07T05:11:38;2.40;99.90
52965;DHT22;42923;53.220;6.528;2023-03-07T05:14:05;2.40;99.90
52965;DHT22;42923;53.220;6.528;2023-03-07T05:16:32;2.50;99.90
52965;DHT22;42923;53.220;6.528;2023-03-07T05:18:58;2.50;99.90
52965;DHT22;42923;53.220;6.528;2023-03-07T05:21:25;2.50;99.90
52965;DHT22;42923;53.220;6.528;2023-03-07T05:23:51;2.50;99.90
52965;DHT22;42923;53.220;6.528;2023-03-07T05:26:16;2.40;99.90
52965;DHT22;42923;53.220;6.528;2023-03-07T05:28:42;2.40;99.90
52965;DHT22;42923;53.220;6.528;2023-03-07T05:31:08;2.70;99.90
52965;DHT22;42923;53.220;6.528;2023-03-07T05:33:33;2.40;99.90
52965;DHT22;42923;53.220;6.528;2023-03-07T05:36:00;2.40;99.90
52965;DHT22;42923;53.220;6.528;2023-03-07T05:38:27;2.50;99.90
52965;DHT22;42923;53.220;6.528;2023-03-07T05:40:53;2.60;99.90
52965;DHT22;42923;53.220;6.528;2023-03-07T05:43:19;2.50;99.90
52965;DHT22;42923;53.220;6.528;2023-03-07T05:45:44;2.50;99.90
52965;DHT22;42923;53.220;6.528;2023-03-07T05:48:10;2.40;99.90
52965;DHT22;42923;53.220;6.528;2023-03-07T05:50:36;2.90;99.90
52965;DHT22;42923;53.220;6.528;2023-03-07T05:53:03;2.30;99.90
52965;DHT22;42923;53.220;6.528;2023-03-07T05:55:30;2.20;99.90
52965;DHT22;42923;53.220;6.528;2023-03-07T05:57:56;2.20;99.90
52965;DHT22;42923;53.220;6.528;2023-03-07T06:00:22;2.20;99.90
52965;DHT22;42923;53.220;6.528;2023-03-07T06:02:53;2.20;99.90
52965;DHT22;42923;53.220;6.528;2023-03-07T06:05:19;2.20;99.90
52965;DHT22;42923;53.220;6.528;2023-03-07T06:07:45;2.20;99.90
52965;DHT22;42923;53.220;6.528;2023-03-07T06:10:13;2.20;99.90
52965;DHT22;42923;53.220;6.528;2023-03-07T06:12:39;2.20;99.90
52965;DHT22;42923;53.220;6.528;2023-03-07T06:15:05;2.30;99.90
52965;DHT22;42923;53.220;6.528;2023-03-07T06:17:33;2.30;99.90
52965;DHT22;42923;53.220;6.528;2023-03-07T06:19:59;2.40;99.90
52965;DHT22;42923;53.220;6.528;2023-03-07T06:22:25;2.40;99.90
52965;DHT22;42923;53.220;6.528;2023-03-07T06:24:50;2.40;99.90
52965;DHT22;42923;53.220;6.528;2023-03-07T06:27:16;2.40;99.90
52965;DHT22;42923;53.220;6.528;2023-03-07T06:29:42;2.50;99.90
52965;DHT22;42923;53.220;6.528;2023-03-07T06:32:08;2.50;99.90
52965;DHT22;42923;53.220;6.528;2023-03-07T06:34:36;2.50;99.90
52965;DHT22;42923;53.220;6.528;2023-03-07T06:37:02;2.50;99.90
52965;DHT22;42923;53.220;6.528;2023-03-07T06:39:28;2.50;99.90
52965;DHT22;42923;53.220;6.528;2023-03-07T06:41:54;2.40;99.90
52965;DHT22;42923;53.220;6.528;2023-03-07T06:44:20;2.40;99.90
52965;DHT22;42923;53.220;6.528;2023-03-07T06:46:46;2.40;99.90
52965;DHT22;42923;53.220;6.528;2023-03-07T06:49:15;2.40;99.90
52965;DHT22;42923;53.220;6.528;2023-03-07T06:51:44;2.50;99.90
52965;DHT22;42923;53.220;6.528;2023-03-07T06:54:09;2.50;99.90
52965;DHT22;42923;53.220;6.528;2023-03-07T06:56:36;2.50;99.90
52965;DHT22;42923;53.220;6.528;2023-03-07T06:59:02;2.50;99.90
52965;DHT22;42923;53.220;6.528;2023-03-07T07:01:28;2.50;99.90
52965;DHT22;42923;53.220;6.528;2023-03-07T07:03:56;2.50;99.90
52965;DHT22;42923;53.220;6.528;2023-03-07T07:06:23;2.40;99.90
52965;DHT22;42923;53.220;6.528;2023-03-07T07:08:51;2.50;99.90
52965;DHT22;42923;53.220;6.528;2023-03-07T07:11:18;2.50;99.90
52965;DHT22;42923;53.220;6.528;2023-03-07T07:13:44;2.50;99.90
52965;DHT22;42923;53.220;6.528;2023-03-07T07:16:12;2.50;99.90
52965;DHT22;42923;53.220;6.528;2023-03-07T07:18:38;2.60;99.90
52965;DHT22;42923;53.220;6.528;2023-03-07T07:21:05;2.60;99.90
52965;DHT22;42923;53.220;6.528;2023-03-07T07:23:31;2.60;99.90
52965;DHT22;42923;53.220;6.528;2023-03-07T07:25:58;2.60;99.90
52965;DHT22;42923;53.220;6.528;2023-03-07T07:28:24;2.60;99.90
52965;DHT22;42923;53.220;6.528;2023-03-07T07:30:50;2.60;99.90
52965;DHT22;42923;53.220;6.528;2023-03-07T07:33:16;2.60;99.90
52965;DHT22;42923;53.220;6.528;2023-03-07T07:35:46;2.90;99.90
52965;DHT22;42923;53.220;6.528;2023-03-07T07:38:12;2.70;99.90
52965;DHT22;42923;53.220;6.528;2023-03-07T07:40:38;2.70;99.90
52965;DHT22;42923;53.220;6.528;2023-03-07T07:43:05;2.70;99.90
52965;DHT22;42923;53.220;6.528;2023-03-07T07:45:37;2.70;99.90
52965;DHT22;42923;53.220;6.528;2023-03-07T07:48:05;2.80;99.90
52965;DHT22;42923;53.220;6.528;2023-03-07T07:50:30;3.20;99.90
52965;DHT22;42923;53.220;6.528;2023-03-07T07:52:56;2.80;99.90
52965;DHT22;42923;53.220;6.528;2023-03-07T07:55:23;3.10;99.90
52965;DHT22;42923;53.220;6.528;2023-03-07T07:57:50;2.90;99.90
52965;DHT22;42923;53.220;6.528;2023-03-07T08:00:17;2.90;99.90
52965;DHT22;42923;53.220;6.528;2023-03-07T08:02:49;3.00;99.90
52965;DHT22;42923;53.220;6.528;2023-03-07T08:05:16;3.00;99.90
52965;DHT22;42923;53.220;6.528;2023-03-07T08:07:42;3.00;99.90
52965;DHT22;42923;53.220;6.528;2023-03-07T08:10:10;3.10;99.90
52965;DHT22;42923;53.220;6.528;2023-03-07T08:12:36;3.20;99.90
52965;DHT22;42923;53.220;6.528;2023-03-07T08:15:02;3.20;99.90
52965;DHT22;42923;53.220;6.528;2023-03-07T08:17:29;3.30;99.90
52965;DHT22;42923;53.220;6.528;2023-03-07T08:19:54;3.30;99.90
52965;DHT22;42923;53.220;6.528;2023-03-07T08:22:26;3.40;99.90
52965;DHT22;42923;53.220;6.528;2023-03-07T08:24:52;3.40;99.90
52965;DHT22;42923;53.220;6.528;2023-03-07T08:27:17;3.60;99.90
52965;DHT22;42923;53.220;6.528;2023-03-07T08:29:47;3.60;99.90
52965;DHT22;42923;53.220;6.528;2023-03-07T08:32:13;3.60;99.90
52965;DHT22;42923;53.220;6.528;2023-03-07T08:34:39;3.60;99.90
52965;DHT22;42923;53.220;6.528;2023-03-07T08:37:05;3.60;99.90
52965;DHT22;42923;53.220;6.528;2023-03-07T08:39:31;3.50;99.90
52965;DHT22;42923;53.220;6.528;2023-03-07T08:41:56;3.40;99.90
52965;DHT22;42923;53.220;6.528;2023-03-07T08:44:24;3.70;99.90
52965;DHT22;42923;53.220;6.528;2023-03-07T08:46:49;3.10;99.90
52965;DHT22;42923;53.220;6.528;2023-03-07T08:49:15;3.00;99.90
52965;DHT22;42923;53.220;6.528;2023-03-07T08:51:41;3.10;99.90
52965;DHT22;42923;53.220;6.528;2023-03-07T08:54:06;3.10;99.90
52965;DHT22;42923;53.220;6.528;2023-03-07T08:56:32;3.20;99.90
52965;DHT22;42923;53.220;6.528;2023-03-07T08:58:58;3.30;99.90
52965;DHT22;42923;53.220;6.528;2023-03-07T09:01:23;3.40;99.90
52965;DHT22;42923;53.220;6.528;2023-03-07T09:03:49;3.50;99.90
52965;DHT22;42923;53.220;6.528;2023-03-07T09:06:17;3.60;99.90
52965;DHT22;42923;53.220;6.528;2023-03-07T09:08:43;3.50;99.90
52965;DHT22;42923;53.220;6.528;2023-03-07T09:11:09;3.60;99.90
52965;DHT22;42923;53.220;6.528;2023-03-07T09:13:35;3.60;99.90
52965;DHT22;42923;53.220;6.528;2023-03-07T09:16:03;3.60;99.90
52965;DHT22;42923;53.220;6.528;2023-03-07T09:18:29;3.60;99.90
52965;DHT22;42923;53.220;6.528;2023-03-07T09:20:58;3.60;99.90
52965;DHT22;42923;53.220;6.528;2023-03-07T09:23:24;3.60;99.90
52965;DHT22;42923;53.220;6.528;2023-03-07T09:25:50;3.60;99.90
52965;DHT22;42923;53.220;6.528;2023-03-07T09:28:15;3.60;99.90
52965;DHT22;42923;53.220;6.528;2023-03-07T09:30:41;3.50;99.90
52965;DHT22;42923;53.220;6.528;2023-03-07T09:33:07;3.60;99.90
52965;DHT22;42923;53.220;6.528;2023-03-07T09:35:33;3.60;99.90
52965;DHT22;42923;53.220;6.528;2023-03-07T09:37:59;3.60;99.90
52965;DHT22;42923;53.220;6.528;2023-03-07T09:40:26;3.60;99.90
52965;DHT22;42923;53.220;6.528;2023-03-07T09:43:16;3.60;99.90
52965;DHT22;42923;53.220;6.528;2023-03-07T09:51:38;3.70;99.90
52965;DHT22;42923;53.220;6.528;2023-03-07T09:54:21;3.70;99.90
52965;DHT22;42923;53.220;6.528;2023-03-07T09:56:52;3.70;99.90
52965;DHT22;42923;53.220;6.528;2023-03-07T09:59:34;3.70;99.90
52965;DHT22;42923;53.220;6.528;2023-03-07T10:05:02;3.90;99.90
52965;DHT22;42923;53.220;6.528;2023-03-07T10:07:29;4.00;99.90
52965;DHT22;42923;53.220;6.528;2023-03-07T10:10:00;3.90;99.90
52965;DHT22;42923;53.220;6.528;2023-03-07T10:15:45;4.50;99.90
52965;DHT22;42923;53.220;6.528;2023-03-07T10:26:20;5.10;99.90
52965;DHT22;42923;53.220;6.528;2023-03-07T10:28:50;5.20;99.90
52965;DHT22;42923;53.220;6.528;2023-03-07T10:31:24;5.20;99.90
52965;DHT22;42923;53.220;6.528;2023-03-07T10:33:52;5.30;99.90
52965;DHT22;42923;53.220;6.528;2023-03-07T10:36:36;5.20;99.90
52965;DHT22;42923;53.220;6.528;2023-03-07T10:39:29;5.10;99.90
52965;DHT22;42923;53.220;6.528;2023-03-07T10:41:58;5.10;99.90
52965;DHT22;42923;53.220;6.528;2023-03-07T10:44:27;5.10;99.90
52965;DHT22;42923;53.220;6.528;2023-03-07T10:46:57;5.10;99.90
52965;DHT22;42923;53.220;6.528;2023-03-07T10:49:30;5.20;99.90
52965;DHT22;42923;53.220;6.528;2023-03-07T10:52:01;5.50;99.90
52965;DHT22;42923;53.220;6.528;2023-03-07T10:54:31;5.80;99.90
52965;DHT22;42923;53.220;6.528;2023-03-07T10:57:12;6.10;99.90
52965;DHT22;42923;53.220;6.528;2023-03-07T10:59:49;6.40;99.90
52965;DHT22;42923;53.220;6.528;2023-03-07T11:02:31;6.60;99.90
52965;DHT22;42923;53.220;6.528;2023-03-07T11:04:59;6.70;99.90
52965;DHT22;42923;53.220;6.528;2023-03-07T11:07:33;6.70;99.90
52965;DHT22;42923;53.220;6.528;2023-03-07T11:10:00;6.70;99.90
52965;DHT22;42923;53.220;6.528;2023-03-07T11:12:28;6.80;99.90
52965;DHT22;42923;53.220;6.528;2023-03-07T11:15:18;6.80;99.90
52965;DHT22;42923;53.220;6.528;2023-03-07T11:17:44;7.00;99.90
52965;DHT22;42923;53.220;6.528;2023-03-07T11:20:20;7.30;99.90
52965;DHT22;42923;53.220;6.528;2023-03-07T11:22:48;7.60;99.90
52965;DHT22;42923;53.220;6.528;2023-03-07T11:25:22;8.10;99.90
52965;DHT22;42923;53.220;6.528;2023-03-07T11:27:53;8.40;99.90
52965;DHT22;42923;53.220;6.528;2023-03-07T11:30:24;8.10;99.90
52965;DHT22;42923;53.220;6.528;2023-03-07T11:35:28;5.90;99.90
52965;DHT22;42923;53.220;6.528;2023-03-07T11:38:13;5.00;99.90
52965;DHT22;42923;53.220;6.528;2023-03-07T11:43:49;4.00;99.90
52965;DHT22;42923;53.220;6.528;2023-03-07T12:00:43;3.80;99.90
52965;DHT22;42923;53.220;6.528;2023-03-07T12:03:25;4.50;99.90
52965;DHT22;42923;53.220;6.528;2023-03-07T12:06:17;5.30;99.90
52965;DHT22;42923;53.220;6.528;2023-03-07T12:09:02;6.10;99.90
52965;DHT22;42923;53.220;6.528;2023-03-07T12:12:03;7.10;99.90
52965;DHT22;42923;53.220;6.528;2023-03-07T12:20:01;8.60;99.90
52965;DHT22;42923;53.220;6.528;2023-03-07T12:22:56;8.30;99.90
52965;DHT22;42923;53.220;6.528;2023-03-07T12:28:44;7.50;99.90
52965;DHT22;42923;53.220;6.528;2023-03-07T12:31:31;7.00;99.90
52965;DHT22;42923;53.220;6.528;2023-03-07T12:34:02;7.20;99.90
52965;DHT22;42923;53.220;6.528;2023-03-07T12:39:37;7.70;99.90
52965;DHT22;42923;53.220;6.528;2023-03-07T12:44:58;6.60;99.90
52965;DHT22;42923;53.220;6.528;2023-03-07T12:47:31;6.60;99.90
52965;DHT22;42923;53.220;6.528;2023-03-07T12:52:53;6.10;99.90
52965;DHT22;42923;53.220;6.528;2023-03-07T13:00:34;8.10;99.90
52965;DHT22;42923;53.220;6.528;2023-03-07T13:03:02;8.90;99.90
52965;DHT22;42923;53.220;6.528;2023-03-07T13:05:33;8.40;99.90
52965;DHT22;42923;53.220;6.528;2023-03-07T13:08:00;7.70;99.90
52965;DHT22;42923;53.220;6.528;2023-03-07T13:10:26;7.20;99.90
52965;DHT22;42923;53.220;6.528;2023-03-07T13:12:52;6.70;99.90
52965;DHT22;42923;53.220;6.528;2023-03-07T13:27:57;7.50;99.90
52965;DHT22;42923;53.220;6.528;2023-03-07T13:30:30;8.00;99.90
52965;DHT22;42923;53.220;6.528;2023-03-07T13:37:59;8.70;99.90
52965;DHT22;42923;53.220;6.528;2023-03-07T13:45:54;6.70;99.90
52965;DHT22;42923;53.220;6.528;2023-03-07T13:53:47;6.30;99.90
52965;DHT22;42923;53.220;6.528;2023-03-07T13:58:52;5.40;99.90
52965;DHT22;42923;53.220;6.528;2023-03-07T14:01:24;5.10;99.90
52965;DHT22;42923;53.220;6.528;2023-03-07T14:03:53;4.90;99.90
52965;DHT22;42923;53.220;6.528;2023-03-07T14:06:24;4.80;99.90
52965;DHT22;42923;53.220;6.528;2023-03-07T14:08:52;4.90;99.90
52965;DHT22;42923;53.220;6.528;2023-03-07T14:11:28;5.60;99.90
52965;DHT22;42923;53.220;6.528;2023-03-07T14:17:07;7.10;99.90
52965;DHT22;42923;53.220;6.528;2023-03-07T14:19:53;6.80;99.90
52965;DHT22;42923;53.220;6.528;2023-03-07T14:22:37;6.60;99.90
52965;DHT22;42923;53.220;6.528;2023-03-07T14:25:15;6.80;99.90
52965;DHT22;42923;53.220;6.528;2023-03-07T14:27:53;7.30;99.90
52965;DHT22;42923;53.220;6.528;2023-03-07T14:30:20;7.30;99.90
52965;DHT22;42923;53.220;6.528;2023-03-07T14:32:46;6.90;99.90
52965;DHT22;42923;53.220;6.528;2023-03-07T14:35:12;6.20;99.90
52965;DHT22;42923;53.220;6.528;2023-03-07T14:37:43;5.60;99.90
52965;DHT22;42923;53.220;6.528;2023-03-07T14:43:13;4.90;99.90
52965;DHT22;42923;53.220;6.528;2023-03-07T14:48:42;4.30;99.90
52965;DHT22;42923;53.220;6.528;2023-03-07T14:51:19;4.40;99.90
52965;DHT22;42923;53.220;6.528;2023-03-07T14:53:46;4.50;99.90
52965;DHT22;42923;53.220;6.528;2023-03-07T14:56:24;4.50;99.90
52965;DHT22;42923;53.220;6.528;2023-03-07T14:58:54;4.40;99.90
52965;DHT22;42923;53.220;6.528;2023-03-07T15:01:22;4.30;99.90
52965;DHT22;42923;53.220;6.528;2023-03-07T15:03:50;4.20;99.90
52965;DHT22;42923;53.220;6.528;2023-03-07T15:06:22;4.10;99.90
52965;DHT22;42923;53.220;6.528;2023-03-07T15:08:48;4.00;99.90
52965;DHT22;42923;53.220;6.528;2023-03-07T15:11:42;3.90;99.90
52965;DHT22;42923;53.220;6.528;2023-03-07T15:14:18;3.80;99.90
52965;DHT22;42923;53.220;6.528;2023-03-07T15:16:48;3.60;99.90
52965;DHT22;42923;53.220;6.528;2023-03-07T15:19:41;3.50;99.90
52965;DHT22;42923;53.220;6.528;2023-03-07T15:22:24;3.30;99.90
52965;DHT22;42923;53.220;6.528;2023-03-07T15:24:51;3.00;99.90
52965;DHT22;42923;53.220;6.528;2023-03-07T15:27:24;2.80;99.90
52965;DHT22;42923;53.220;6.528;2023-03-07T15:29:51;2.60;99.90
52965;DHT22;42923;53.220;6.528;2023-03-07T15:32:36;2.60;99.90
52965;DHT22;42923;53.220;6.528;2023-03-07T15:37:56;2.80;99.90
52965;DHT22;42923;53.220;6.528;2023-03-07T15:40:27;2.80;99.90
52965;DHT22;42923;53.220;6.528;2023-03-07T15:42:58;3.00;99.90
52965;DHT22;42923;53.220;6.528;2023-03-07T15:45:40;2.80;99.90
52965;DHT22;42923;53.220;6.528;2023-03-07T15:48:25;2.80;99.90
52965;DHT22;42923;53.220;6.528;2023-03-07T15:50:55;2.80;99.90
52965;DHT22;42923;53.220;6.528;2023-03-07T15:53:29;2.80;99.90
52965;DHT22;42923;53.220;6.528;2023-03-07T15:55:57;2.80;99.90
52965;DHT22;42923;53.220;6.528;2023-03-07T15:58:24;2.80;99.90
52965;DHT22;42923;53.220;6.528;2023-03-07T16:01:13;2.70;99.90
52965;DHT22;42923;53.220;6.528;2023-03-07T16:04:01;2.70;99.90
52965;DHT22;42923;53.220;6.528;2023-03-07T16:09:12;2.70;99.90
52965;DHT22;42923;53.220;6.528;2023-03-07T16:11:39;2.70;99.90
52965;DHT22;42923;53.220;6.528;2023-03-07T16:14:25;2.70;99.90
52965;DHT22;42923;53.220;6.528;2023-03-07T16:17:02;2.70;99.90
52965;DHT22;42923;53.220;6.528;2023-03-07T16:19:28;2.60;99.90
52965;DHT22;42923;53.220;6.528;2023-03-07T16:21:54;2.70;99.90
52965;DHT22;42923;53.220;6.528;2023-03-07T16:24:20;3.10;99.90
52965;DHT22;42923;53.220;6.528;2023-03-07T16:26:46;2.60;99.90
52965;DHT22;42923;53.220;6.528;2023-03-07T16:29:17;2.50;99.90
52965;DHT22;42923;53.220;6.528;2023-03-07T16:31:44;2.50;99.90
52965;DHT22;42923;53.220;6.528;2023-03-07T16:34:21;2.40;99.90
52965;DHT22;42923;53.220;6.528;2023-03-07T16:36:47;2.30;99.90
52965;DHT22;42923;53.220;6.528;2023-03-07T16:39:14;2.20;99.90
52965;DHT22;42923;53.220;6.528;2023-03-07T16:41:47;2.10;99.90
52965;DHT22;42923;53.220;6.528;2023-03-07T16:44:18;2.00;99.90
52965;DHT22;42923;53.220;6.528;2023-03-07T16:46:54;1.90;99.90
52965;DHT22;42923;53.220;6.528;2023-03-07T16:49:20;1.90;99.90
52965;DHT22;42923;53.220;6.528;2023-03-07T16:51:46;1.80;99.90
52965;DHT22;42923;53.220;6.528;2023-03-07T16:54:12;1.90;99.90
52965;DHT22;42923;53.220;6.528;2023-03-07T16:56:40;1.60;99.90
52965;DHT22;42923;53.220;6.528;2023-03-07T16:59:19;1.50;99.90
52965;DHT22;42923;53.220;6.528;2023-03-07T17:01:48;1.50;99.90
52965;DHT22;42923;53.220;6.528;2023-03-07T17:04:14;1.40;99.90
52965;DHT22;42923;53.220;6.528;2023-03-07T17:06:40;1.30;99.90
52965;DHT22;42923;53.220;6.528;2023-03-07T17:09:08;1.20;99.90
52965;DHT22;42923;53.220;6.528;2023-03-07T17:11:34;1.10;99.90
52965;DHT22;42923;53.220;6.528;2023-03-07T17:14:06;1.10;99.90
52965;DHT22;42923;53.220;6.528;2023-03-07T17:16:42;1.00;99.90
52965;DHT22;42923;53.220;6.528;2023-03-07T17:19:29;0.90;99.90
52965;DHT22;42923;53.220;6.528;2023-03-07T17:21:56;0.80;99.90
52965;DHT22;42923;53.220;6.528;2023-03-07T17:24:23;0.80;99.90
52965;DHT22;42923;53.220;6.528;2023-03-07T17:26:49;0.70;99.90
52965;DHT22;42923;53.220;6.528;2023-03-07T17:29:42;0.70;99.90
52965;DHT22;42923;53.220;6.528;2023-03-07T17:32:09;0.60;99.90
52965;DHT22;42923;53.220;6.528;2023-03-07T17:34:36;0.50;99.90
52965;DHT22;42923;53.220;6.528;2023-03-07T17:37:02;0.40;99.90
52965;DHT22;42923;53.220;6.528;2023-03-07T17:39:29;0.40;99.90
52965;DHT22;42923;53.220;6.528;2023-03-07T17:41:57;0.30;99.90
52965;DHT22;42923;53.220;6.528;2023-03-07T17:44:23;0.30;99.90
52965;DHT22;42923;53.220;6.528;2023-03-07T17:46:51;0.30;99.90
52965;DHT22;42923;53.220;6.528;2023-03-07T17:49:16;0.20;99.90
52965;DHT22;42923;53.220;6.528;2023-03-07T17:51:42;0.20;99.90
52965;DHT22;42923;53.220;6.528;2023-03-07T17:54:08;0.30;99.90